Time;durP1;ratioP1;P1;durP2;ratioP2;P2;SDS_P1;SDS_P2;PMS_P1;PMS_P2;Temp;Humidity;BMP_temperature;BMP_pressure;BME280_temperature;BME280_humidity;BME280_pressure;Samples;Min_cycle;Max_cycle;Signal;HPM_P1;HPM_P2
2022/11/13 00:00:55;;;;;;;4.95;3.33;;;20.40;45.10;;;;;;5047456;28;20375;-52
2022/11/13 00:03:40;;;;;;;;;;;20.40;45.00;;;;;;5045039;28;20040;-52
2022/11/13 00:06:24;;;;;;;5.13;3.00;;;20.40;45.00;;;;;;5050041;28;19936;-54
2022/11/13 00:09:11;;;;;;;4.88;2.95;;;20.50;45.00;;;;;;5046608;28;20044;-53
2022/11/13 00:11:56;;;;;;;3.13;2.53;;;20.40;45.00;;;;;;5042785;28;20044;-52
2022/11/13 00:14:40;;;;;;;3.40;2.67;;;20.40;44.90;;;;;;5049790;28;20489;-52
2022/11/13 00:17:24;;;;;;;4.32;2.80;;;20.50;44.90;;;;;;5048287;28;20051;-51
2022/11/13 00:20:09;;;;;;;4.05;2.65;;;20.40;44.80;;;;;;5048058;28;20467;-52
2022/11/13 00:22:53;;;;;;;;;;;20.40;44.70;;;;;;5046419;28;20182;-52
2022/11/13 00:25:38;;;;;;;4.57;2.67;;;20.50;44.70;;;;;;5048975;28;19919;-49
2022/11/13 00:28:22;;;;;;;3.85;2.40;;;20.40;44.60;;;;;;5048528;28;20475;-50
2022/11/13 00:31:07;;;;;;;4.78;2.90;;;20.50;44.70;;;;;;5049866;28;20098;-50
2022/11/13 00:33:52;;;;;;;3.67;2.42;;;20.40;44.50;;;;;;5044672;28;20039;-48
2022/11/13 00:36:36;;;;;;;4.63;2.92;;;20.40;44.50;;;;;;5047556;28;20367;-51
2022/11/13 00:39:20;;;;;;;4.03;2.80;;;20.40;44.50;;;;;;5045514;28;20047;-50
2022/11/13 00:42:04;;;;;;;4.10;2.70;;;20.50;44.50;;;;;;5047064;28;20068;-51
2022/11/13 00:44:48;;;;;;;3.90;2.50;;;20.50;44.50;;;;;;5045359;28;20040;-50
2022/11/13 00:47:32;;;;;;;6.70;2.63;;;20.50;44.40;;;;;;5046644;28;20098;-50
2022/11/13 00:50:17;;;;;;;3.58;2.50;;;20.50;44.40;;;;;;5050134;28;20124;-50
2022/11/13 00:53:01;;;;;;;11.02;2.55;;;20.50;44.30;;;;;;5048735;28;20474;-53
2022/11/13 00:55:45;;;;;;;3.72;2.47;;;20.50;44.30;;;;;;5048917;28;20046;-47
2022/11/13 00:58:30;;;;;;;3.75;2.60;;;20.40;44.20;;;;;;5045636;28;20063;-52
2022/11/13 01:01:15;;;;;;;;;;;20.50;44.20;;;;;;5043513;28;20099;-51
2022/11/13 01:04:00;;;;;;;3.42;2.30;;;20.40;44.10;;;;;;5049001;28;20251;-50
2022/11/13 01:06:44;;;;;;;3.72;2.60;;;20.50;44.20;;;;;;5048229;28;20435;-51
2022/11/13 01:09:29;;;;;;;3.50;2.47;;;20.40;44.10;;;;;;5049942;28;20075;-52
2022/11/13 01:12:13;;;;;;;3.47;2.28;;;20.40;44.10;;;;;;5053067;28;20071;-53
2022/11/13 01:14:57;;;;;;;3.60;2.60;;;20.40;44.10;;;;;;5044445;28;20137;-51
2022/11/13 01:17:42;;;;;;;3.33;2.42;;;20.40;44.10;;;;;;5048883;28;20074;-53
2022/11/13 01:20:26;;;;;;;2.97;2.10;;;20.40;44.10;;;;;;5053384;28;20104;-53
2022/11/13 01:23:11;;;;;;;3.15;2.30;;;20.40;44.10;;;;;;5052026;28;20107;-54
2022/11/13 01:26:04;;;;;;;2.60;2.22;;;20.40;44.10;;;;;;5054586;28;20102;-54
2022/11/13 01:28:49;;;;;;;4.93;2.70;;;20.40;44.10;;;;;;5051479;28;20071;-53
2022/11/13 01:31:33;;;;;;;3.08;2.50;;;20.40;44.00;;;;;;5043731;28;20072;-54
2022/11/13 01:34:17;;;;;;;3.40;2.63;;;20.40;44.00;;;;;;5048134;28;20047;-50
2022/11/13 01:37:02;;;;;;;3.38;2.42;;;20.40;44.00;;;;;;5052829;28;20477;-52
2022/11/13 01:39:46;;;;;;;5.53;2.70;;;20.40;44.00;;;;;;5053142;28;20347;-51
2022/11/13 01:42:33;;;;;;;4.25;2.13;;;20.40;44.10;;;;;;5053273;28;20501;-50
2022/11/13 01:45:55;;;;;;;3.20;2.22;;;20.40;44.00;;;;;;5052065;28;20040;-51
2022/11/13 01:48:56;;;;;;;3.67;2.40;;;20.40;44.00;;;;;;5046554;28;20040;-53
2022/11/13 01:51:49;;;;;;;2.50;2.25;;;20.40;43.90;;;;;;5051387;28;20044;-51
2022/11/13 01:54:38;;;;;;;3.70;2.50;;;20.40;43.90;;;;;;5050615;28;20434;-51
2022/11/13 01:57:23;;;;;;;3.08;1.98;;;20.40;43.80;;;;;;5051916;28;20550;-52
2022/11/13 02:00:10;;;;;;;3.38;2.20;;;20.40;43.80;;;;;;5052378;28;20183;-53
2022/11/13 02:02:54;;;;;;;3.35;2.08;;;20.40;43.80;;;;;;5042268;28;20044;-49
2022/11/13 02:05:39;;;;;;;4.07;2.30;;;20.40;43.80;;;;;;5053299;28;20048;-49
2022/11/13 02:08:23;;;;;;;3.22;2.33;;;20.40;43.70;;;;;;5047436;28;21343;-50
2022/11/13 02:11:07;;;;;;;3.75;2.30;;;20.40;43.60;;;;;;5051060;28;20035;-54
2022/11/13 02:13:52;;;;;;;;;;;20.40;43.60;;;;;;5048757;28;20116;-52
2022/11/13 02:16:38;;;;;;;3.70;2.80;;;20.40;43.60;;;;;;5052467;28;20406;-53
2022/11/13 02:19:30;;;;;;;3.65;2.50;;;20.40;43.50;;;;;;5048828;28;20051;-50
2022/11/13 02:22:31;;;;;;;3.40;2.15;;;20.40;43.60;;;;;;5052269;28;20075;-51
2022/11/13 02:25:16;;;;;;;3.15;1.95;;;20.40;43.40;;;;;;5047222;28;20051;-49
2022/11/13 02:28:01;;;;;;;3.17;2.08;;;20.40;43.40;;;;;;5050803;28;20136;-51
2022/11/13 02:30:45;;;;;;;2.65;1.83;;;20.40;43.40;;;;;;5050410;28;20116;-49
2022/11/13 02:33:31;;;;;;;2.58;1.90;;;20.40;43.30;;;;;;5041226;28;20067;-51
2022/11/13 02:36:17;;;;;;;3.05;2.03;;;20.40;43.30;;;;;;5050727;28;20101;-54
2022/11/13 02:39:06;;;;;;;3.10;2.05;;;20.40;43.30;;;;;;5051192;28;20206;-54
2022/11/13 02:41:50;;;;;;;4.93;2.08;;;20.40;43.20;;;;;;5049945;28;20031;-52
2022/11/13 02:44:35;;;;;;;2.90;2.13;;;20.40;43.20;;;;;;5051176;28;20430;-51
2022/11/13 02:47:19;;;;;;;3.42;2.08;;;20.40;43.40;;;;;;5045875;28;20538;-53
2022/11/13 02:50:05;;;;;;;4.38;2.45;;;20.40;43.10;;;;;;5049360;28;20041;-48
2022/11/13 02:52:49;;;;;;;3.88;2.25;;;20.40;43.10;;;;;;5049925;28;20071;-48
2022/11/13 02:55:33;;;;;;;2.97;2.20;;;20.40;43.10;;;;;;5049984;28;20514;-51
2022/11/13 02:58:18;;;;;;;3.60;2.13;;;20.30;43.00;;;;;;5050225;28;20077;-54
2022/11/13 03:01:03;;;;;;;3.35;2.00;;;20.30;42.90;;;;;;5049961;28;20517;-54
2022/11/13 03:03:47;;;;;;;3.03;1.90;;;20.40;42.90;;;;;;5048101;28;20571;-50
2022/11/13 03:06:31;;;;;;;4.53;2.20;;;20.40;42.90;;;;;;5048306;28;20118;-51
2022/11/13 03:09:16;;;;;;;3.20;2.20;;;20.40;42.90;;;;;;5046425;28;20086;-51
2022/11/13 03:12:00;;;;;;;3.13;2.20;;;20.40;42.90;;;;;;5050479;28;20117;-48
2022/11/13 03:14:44;;;;;;;3.28;2.00;;;20.40;42.80;;;;;;5047808;28;20099;-49
2022/11/13 03:17:33;;;;;;;3.40;2.10;;;20.40;42.80;;;;;;5045820;28;20058;-49
2022/11/13 03:20:17;;;;;;;3.08;1.83;;;20.30;42.70;;;;;;5054535;28;20047;-49
2022/11/13 03:23:03;;;;;;;2.28;1.85;;;20.30;42.70;;;;;;5056316;28;20052;-50
2022/11/13 03:25:48;;;;;;;4.43;2.25;;;20.30;42.70;;;;;;5055641;28;20133;-47
2022/11/13 03:28:33;;;;;;;2.72;1.98;;;20.30;42.60;;;;;;5054476;28;20044;-50
2022/11/13 03:31:17;;;;;;;4.53;2.20;;;20.30;42.60;;;;;;5055788;28;20483;-52
2022/11/13 03:34:01;;;;;;;3.83;2.38;;;20.30;42.60;;;;;;5040182;28;20064;-50
2022/11/13 03:36:46;;;;;;;3.67;2.38;;;20.30;42.60;;;;;;5035756;28;20068;-49
2022/11/13 03:39:30;;;;;;;2.72;2.03;;;20.40;42.70;;;;;;5036051;28;20095;-47
2022/11/13 03:42:14;;;;;;;3.73;2.00;;;20.30;42.60;;;;;;5043075;28;20087;-48
2022/11/13 03:44:58;;;;;;;3.65;2.40;;;20.30;42.50;;;;;;5035136;28;20441;-54
2022/11/13 03:47:42;;;;;;;4.00;2.42;;;20.30;42.50;;;;;;5055089;28;20047;-49
2022/11/13 03:50:26;;;;;;;2.58;2.20;;;20.30;42.50;;;;;;5055428;28;20376;-49
2022/11/13 03:53:10;;;;;;;3.08;2.40;;;20.30;42.50;;;;;;5055344;28;20048;-49
2022/11/13 03:55:55;;;;;;;3.88;2.40;;;20.30;42.40;;;;;;5053492;28;20059;-58
2022/11/13 03:58:39;;;;;;;3.28;2.20;;;20.30;42.40;;;;;;5035628;28;20080;-49
2022/11/13 04:01:23;;;;;;;5.03;2.10;;;20.30;42.40;;;;;;5035894;28;20107;-48
2022/11/13 04:04:07;;;;;;;3.22;2.17;;;20.30;42.40;;;;;;5035988;28;20055;-53
2022/11/13 04:06:51;;;;;;;3.55;2.35;;;20.30;42.40;;;;;;5035637;28;20060;-54
2022/11/13 04:09:35;;;;;;;3.17;2.40;;;20.30;42.40;;;;;;5051306;28;20106;-53
2022/11/13 04:12:19;;;;;;;2.63;2.13;;;20.30;42.30;;;;;;5049877;28;20075;-51
2022/11/13 04:15:04;;;;;;;2.65;2.17;;;20.30;42.30;;;;;;5054794;28;20079;-51
2022/11/13 04:17:49;;;;;;;3.88;2.22;;;20.30;42.30;;;;;;5050265;28;20055;-51
2022/11/13 04:20:33;;;;;;;3.58;2.25;;;20.30;42.30;;;;;;5042272;28;20092;-51
2022/11/13 04:23:17;;;;;;;2.45;2.10;;;20.30;42.20;;;;;;5049978;28;20570;-51
2022/11/13 04:26:02;;;;;;;2.92;2.20;;;20.30;42.20;;;;;;5048412;28;20102;-54
2022/11/13 04:28:46;;;;;;;2.10;1.85;;;20.30;42.20;;;;;;5048707;28;20376;-48
2022/11/13 04:31:30;;;;;;;3.60;2.23;;;20.30;42.20;;;;;;5042500;28;20095;-50
2022/11/13 04:34:14;;;;;;;3.20;2.10;;;20.30;42.20;;;;;;5047141;28;20310;-50
2022/11/13 04:36:59;;;;;;;4.57;2.53;;;20.30;42.20;;;;;;5047340;28;20553;-50
2022/11/13 04:39:43;;;;;;;2.40;2.20;;;20.30;42.20;;;;;;5049781;28;20087;-54
2022/11/13 04:45:31;;;;;;;3.42;2.38;;;20.30;42.10;;;;;;5046348;28;20309;-51
2022/11/13 04:48:15;;;;;;;3.40;2.08;;;20.30;42.10;;;;;;5047443;28;20124;-49
2022/11/13 04:50:59;;;;;;;3.25;2.45;;;20.30;42.10;;;;;;5049695;28;20051;-50
2022/11/13 04:53:44;;;;;;;3.42;1.90;;;20.20;42.00;;;;;;5047287;28;20044;-51
2022/11/13 04:56:28;;;;;;;2.58;2.00;;;20.20;42.00;;;;;;5049332;28;20132;-47
2022/11/13 04:59:12;;;;;;;2.78;2.20;;;20.20;42.10;;;;;;5031759;28;20107;-50
2022/11/13 05:01:57;;;;;;;6.05;2.25;;;20.20;42.10;;;;;;5046748;28;20134;-47
2022/11/13 05:04:41;;;;;;;;;;;20.20;42.10;;;;;;5045926;28;20386;-50
2022/11/13 05:07:26;;;;;;;3.33;2.15;;;20.20;42.10;;;;;;5046395;28;19995;-47
2022/11/13 05:10:10;;;;;;;3.08;2.20;;;20.20;42.10;;;;;;5047437;28;20517;-48
2022/11/13 05:12:56;;;;;;;2.95;2.15;;;20.20;42.10;;;;;;5046579;28;20040;-53
2022/11/13 05:15:40;;;;;;;3.70;2.30;;;20.20;42.10;;;;;;5045169;28;20059;-53
2022/11/13 05:18:25;;;;;;;3.42;2.40;;;20.20;42.00;;;;;;5045154;28;20080;-48
2022/11/13 05:21:09;;;;;;;2.63;2.28;;;20.20;42.00;;;;;;5045570;28;20121;-48
2022/11/13 05:23:54;;;;;;;2.45;1.90;;;20.20;42.00;;;;;;5047605;28;20419;-51
2022/11/13 05:26:39;;;;;;;2.95;2.28;;;20.20;42.00;;;;;;5046192;28;20555;-50
2022/11/13 05:29:24;;;;;;;2.88;2.03;;;20.20;41.90;;;;;;5044772;28;20044;-49
2022/11/13 05:32:08;;;;;;;3.05;2.22;;;20.20;41.90;;;;;;5046046;28;20040;-51
2022/11/13 05:34:53;;;;;;;3.03;2.40;;;20.20;41.90;;;;;;5047880;28;20098;-51
2022/11/13 05:37:37;;;;;;;3.67;2.35;;;20.20;41.90;;;;;;5047168;28;20132;-52
2022/11/13 05:40:22;;;;;;;2.88;2.17;;;20.20;41.90;;;;;;5045367;28;20175;-50
2022/11/13 05:43:06;;;;;;;3.22;2.15;;;20.20;41.90;;;;;;5049804;28;20060;-53
2022/11/13 05:45:50;;;;;;;5.15;2.53;;;20.20;41.90;;;;;;5047925;28;20039;-52
2022/11/13 05:48:35;;;;;;;4.57;2.08;;;20.20;41.90;;;;;;5049273;28;20048;-53
2022/11/13 05:51:26;;;;;;;3.13;2.17;;;20.20;41.80;;;;;;5044183;28;20045;-54
2022/11/13 05:54:10;;;;;;;3.85;2.67;;;20.20;41.80;;;;;;5047368;28;20106;-56
2022/11/13 05:56:54;;;;;;;3.45;2.30;;;20.20;41.80;;;;;;5052610;28;20454;-54
2022/11/13 05:59:38;;;;;;;3.00;2.10;;;20.20;41.80;;;;;;5052821;28;20036;-55
2022/11/13 06:02:23;;;;;;;3.78;2.55;;;20.10;41.70;;;;;;5050822;28;20047;-51
2022/11/13 06:05:08;;;;;;;5.47;2.00;;;20.10;41.70;;;;;;5050822;28;20128;-53
2022/11/13 06:07:52;;;;;;;4.13;2.30;;;20.10;42.30;;;;;;5051961;28;20534;-55
2022/11/13 06:10:36;;;;;;;2.15;1.70;;;20.10;41.60;;;;;;5030208;28;21648;-52
2022/11/13 06:13:21;;;;;;;2.67;2.08;;;20.10;41.60;;;;;;5048839;28;20151;-56
2022/11/13 06:16:10;;;;;;;3.28;2.40;;;20.10;41.50;;;;;;5051358;28;20431;-53
2022/11/13 06:18:57;;;;;;;3.97;2.17;;;20.10;41.50;;;;;;5051634;28;20152;-53
2022/11/13 06:21:41;;;;;;;2.95;2.30;;;20.10;41.50;;;;;;5049039;28;20059;-50
2022/11/13 06:24:26;;;;;;;2.75;2.20;;;20.10;41.50;;;;;;5036987;28;20047;-55
2022/11/13 06:27:10;;;;;;;3.00;2.10;;;20.10;41.50;;;;;;5049415;28;20093;-49
2022/11/13 06:29:54;;;;;;;2.35;1.60;;;20.10;41.40;;;;;;5042673;28;20075;-49
2022/11/13 06:32:38;;;;;;;2.95;2.10;;;20.10;41.40;;;;;;5049688;28;20075;-52
2022/11/13 06:35:22;;;;;;;2.53;1.70;;;20.10;41.40;;;;;;5032087;28;20529;-55
2022/11/13 06:38:07;;;;;;;2.78;2.15;;;20.10;41.40;;;;;;5047156;28;20406;-54
2022/11/13 06:40:51;;;;;;;4.35;2.40;;;20.10;41.40;;;;;;5050092;28;20047;-56
2022/11/13 06:43:35;;;;;;;3.42;2.33;;;20.10;41.30;;;;;;5048845;28;20048;-48
2022/11/13 06:46:22;;;;;;;3.03;2.05;;;20.10;41.30;;;;;;5047404;28;20060;-53
2022/11/13 06:49:06;;;;;;;2.53;1.73;;;20.10;41.20;;;;;;5051104;28;20051;-53
2022/11/13 06:51:51;;;;;;;2.50;2.03;;;20.10;41.20;;;;;;5051397;28;20514;-51
2022/11/13 06:54:35;;;;;;;2.30;1.95;;;20.10;41.20;;;;;;5049250;28;20108;-50
2022/11/13 06:57:19;;;;;;;3.60;2.03;;;20.10;41.20;;;;;;5046420;28;20048;-53
2022/11/13 07:00:05;;;;;;;2.22;1.80;;;20.10;41.20;;;;;;5052473;28;20041;-53
2022/11/13 07:02:49;;;;;;;2.78;1.95;;;20.10;41.10;;;;;;5052056;28;20407;-53
2022/11/13 07:05:36;;;;;;;2.83;1.98;;;20.10;41.20;;;;;;5035548;28;20071;-50
2022/11/13 07:08:20;;;;;;;2.65;2.00;;;20.10;41.10;;;;;;5039932;28;20035;-49
2022/11/13 07:11:06;;;;;;;2.88;1.90;;;20.10;41.20;;;;;;5042111;28;20091;-50
2022/11/13 07:13:51;;;;;;;3.88;1.85;;;20.10;41.20;;;;;;5040036;28;20076;-48
2022/11/13 07:16:35;;;;;;;3.85;2.00;;;20.10;41.20;;;;;;5045372;28;20051;-53
2022/11/13 07:19:20;;;;;;;3.30;2.05;;;20.10;41.20;;;;;;5043220;28;20056;-48
2022/11/13 07:22:05;;;;;;;9.50;2.10;;;20.10;41.30;;;;;;5042996;28;20045;-52
2022/11/13 07:24:49;;;;;;;4.10;2.40;;;20.10;41.30;;;;;;5049176;28;20044;-50
2022/11/13 07:27:33;;;;;;;3.80;2.28;;;20.10;41.20;;;;;;5046506;28;20126;-52
2022/11/13 07:30:19;;;;;;;3.47;2.20;;;20.10;41.80;;;;;;5046916;28;20052;-46
2022/11/13 07:33:03;;;;;;;3.63;1.95;;;20.10;41.20;;;;;;5049055;28;20040;-47
2022/11/13 07:35:48;;;;;;;3.40;2.53;;;20.10;41.10;;;;;;5046411;28;20470;-49
2022/11/13 07:38:33;;;;;;;3.25;2.10;;;20.10;41.00;;;;;;5046760;28;20461;-53
2022/11/13 07:41:17;;;;;;;3.58;2.20;;;20.10;40.90;;;;;;5049374;28;20098;-49
2022/11/13 07:44:01;;;;;;;4.68;2.45;;;20.10;40.80;;;;;;5050706;28;20521;-48
2022/11/13 07:46:45;;;;;;;3.10;2.17;;;20.10;40.80;;;;;;5047809;28;20098;-50
2022/11/13 07:49:29;;;;;;;4.60;2.80;;;20.10;40.80;;;;;;5047027;28;20086;-51
2022/11/13 07:52:13;;;;;;;5.13;2.57;;;20.10;40.80;;;;;;5047099;28;20048;-48
2022/11/13 07:54:57;;;;;;;3.13;2.10;;;20.10;40.70;;;;;;5045632;28;20326;-55
2022/11/13 07:57:42;;;;;;;5.18;2.45;;;20.10;40.70;;;;;;5043131;28;20373;-55
2022/11/13 08:00:27;;;;;;;3.78;2.35;;;20.10;40.70;;;;;;5042479;28;20538;-50
2022/11/13 08:03:14;;;;;;;4.80;2.75;;;20.10;40.90;;;;;;5052271;28;20036;-50
2022/11/13 08:06:03;;;;;;;3.70;2.42;;;20.10;41.30;;;;;;5049313;28;20525;-50
2022/11/13 08:08:48;;;;;;;3.13;2.50;;;20.00;41.10;;;;;;5047841;28;20036;-49
2022/11/13 08:11:32;;;;;;;4.38;2.60;;;20.10;41.00;;;;;;5049325;28;20056;-49
2022/11/13 08:14:17;;;;;;;5.22;2.53;;;20.10;41.00;;;;;;5048124;28;20128;-47
2022/11/13 08:17:02;;;;;;;7.15;2.47;;;20.10;41.10;;;;;;5042999;28;20171;-54
2022/11/13 08:19:46;;;;;;;4.60;2.75;;;20.10;41.20;;;;;;5051400;28;20207;-52
2022/11/13 08:22:30;;;;;;;5.05;3.22;;;20.10;41.20;;;;;;5044403;28;20044;-51
2022/11/13 08:25:15;;;;;;;4.82;2.70;;;20.10;41.20;;;;;;5038076;28;20047;-52
2022/11/13 08:28:00;;;;;;;5.53;2.58;;;20.10;41.20;;;;;;5043700;28;20040;-56
2022/11/13 08:30:44;;;;;;;4.28;2.53;;;20.10;41.30;;;;;;5049720;28;20102;-53
2022/11/13 08:33:29;;;;;;;6.13;2.50;;;20.10;41.30;;;;;;5045059;28;20044;-53
2022/11/13 08:36:14;;;;;;;6.32;2.90;;;20.10;41.80;;;;;;5040378;28;20538;-55
2022/11/13 08:38:58;;;;;;;8.75;3.20;;;20.10;41.20;;;;;;5047823;28;20379;-52
2022/11/13 08:41:42;;;;;;;6.00;3.28;;;20.10;41.20;;;;;;5050784;28;20055;-52
2022/11/13 08:44:26;;;;;;;7.50;3.17;;;20.10;41.10;;;;;;5054587;28;20079;-50
2022/11/13 08:47:10;;;;;;;4.83;2.90;;;20.10;41.20;;;;;;5054006;28;20048;-52
2022/11/13 08:49:55;;;;;;;5.53;2.67;;;20.10;41.10;;;;;;5053192;28;20040;-48
2022/11/13 08:52:39;;;;;;;4.07;2.92;;;20.10;41.10;;;;;;5033989;28;20103;-52
2022/11/13 08:55:24;;;;;;;3.95;2.60;;;20.10;41.00;;;;;;5034502;28;20381;-54
2022/11/13 08:58:08;;;;;;;4.80;3.00;;;20.10;40.90;;;;;;5034430;28;20044;-53
2022/11/13 09:00:57;;;;;;;5.22;2.55;;;20.10;40.90;;;;;;5039975;28;20077;-55
2022/11/13 09:03:42;;;;;;;4.50;2.78;;;20.10;40.90;;;;;;5054413;28;20044;-54
2022/11/13 09:06:26;;;;;;;5.15;3.30;;;20.10;40.80;;;;;;5053780;28;20541;-53
2022/11/13 09:09:10;;;;;;;6.95;3.28;;;20.10;40.70;;;;;;5039123;28;20136;-48
2022/11/13 09:11:54;;;;;;;6.35;2.92;;;20.10;40.80;;;;;;5040018;28;20067;-50
2022/11/13 09:14:39;;;;;;;5.78;3.03;;;20.10;40.80;;;;;;5054899;28;20471;-51
2022/11/13 09:17:23;;;;;;;4.40;2.80;;;20.10;40.90;;;;;;5052579;28;20051;-50
2022/11/13 09:20:08;;;;;;;5.05;2.97;;;20.10;41.00;;;;;;5034315;28;20191;-50
2022/11/13 09:23:00;;;;;;;5.15;2.55;;;20.10;41.10;;;;;;5034425;28;20452;-52
2022/11/13 09:25:45;;;;;;;7.68;3.00;;;20.10;41.20;;;;;;5034369;28;20115;-47
2022/11/13 09:28:29;;;;;;;5.72;2.80;;;20.10;41.20;;;;;;5035476;28;20099;-48
2022/11/13 09:31:13;;;;;;;6.53;2.80;;;20.10;41.30;;;;;;5037777;28;20053;-49
2022/11/13 09:33:57;;;;;;;6.20;3.25;;;20.10;41.40;;;;;;5038496;28;20308;-52
2022/11/13 09:36:42;;;;;;;4.75;2.50;;;20.10;41.50;;;;;;5037729;28;20068;-50
2022/11/13 09:39:27;;;;;;;4.10;2.88;;;20.20;41.70;;;;;;5038172;28;20060;-50
2022/11/13 09:42:25;;;;;;;5.65;2.60;;;20.20;41.80;;;;;;5038459;28;20041;-48
2022/11/13 09:45:14;;;;;;;4.88;3.00;;;20.20;41.90;;;;;;5037515;28;20497;-52
2022/11/13 09:48:16;;;;;;;5.10;2.70;;;20.20;42.00;;;;;;5037613;28;20121;-49
2022/11/13 09:51:20;;;;;;;5.70;2.65;;;20.20;42.10;;;;;;5040973;28;20043;-52
2022/11/13 09:54:12;;;;;;;4.00;2.60;;;20.20;42.10;;;;;;5038031;28;20044;-51
2022/11/13 09:57:15;;;;;;;4.30;3.00;;;20.20;42.10;;;;;;5049020;28;20551;-51
2022/11/13 10:00:06;;;;;;;5.60;3.00;;;20.30;42.30;;;;;;5057584;28;20503;-50
2022/11/13 10:03:25;;;;;;;4.13;2.42;;;20.30;42.20;;;;;;5057114;28;20106;-53
2022/11/13 10:06:44;;;;;;;3.65;2.25;;;20.30;42.20;;;;;;5057243;28;20056;-51
2022/11/13 10:09:56;;;;;;;4.53;2.65;;;20.30;42.30;;;;;;5039097;28;20047;-49
2022/11/13 10:12:41;;;;;;;4.47;3.00;;;20.30;42.30;;;;;;5048365;28;20049;-54
2022/11/13 10:15:26;;;;;;;5.72;2.40;;;20.30;42.30;;;;;;5043958;28;20096;-51
2022/11/13 10:18:19;;;;;;;7.35;2.97;;;20.30;42.30;;;;;;5043458;28;20346;-55
2022/11/13 10:21:21;;;;;;;3.95;2.15;;;20.30;42.50;;;;;;5032390;28;20361;-54
2022/11/13 10:24:21;;;;;;;4.50;2.50;;;20.40;42.50;;;;;;5046791;28;20163;-51
2022/11/13 10:27:12;;;;;;;5.10;2.85;;;20.40;42.30;;;;;;5044651;28;20056;-52
2022/11/13 10:29:56;;;;;;;4.15;2.92;;;20.40;42.00;;;;;;5043542;28;20107;-55
2022/11/13 10:32:42;;;;;;;3.85;2.45;;;20.40;41.80;;;;;;5045684;28;20052;-49
2022/11/13 10:35:40;;;;;;;3.67;2.33;;;20.40;41.50;;;;;;5039949;28;20518;-52
2022/11/13 10:38:41;;;;;;;3.42;2.38;;;20.40;41.30;;;;;;5045504;28;20369;-55
2022/11/13 10:41:26;;;;;;;3.90;2.55;;;20.40;41.10;;;;;;5036318;28;20075;-48
2022/11/13 10:44:32;;;;;;;3.90;2.53;;;20.40;41.00;;;;;;5044540;28;20095;-53
2022/11/13 10:47:22;;;;;;;4.40;2.47;;;20.30;40.80;;;;;;5039070;28;20060;-52
2022/11/13 10:50:14;;;;;;;5.13;3.03;;;20.40;41.10;;;;;;5047896;28;20483;-55
2022/11/13 10:52:58;;;;;;;11.77;4.45;;;20.40;41.60;;;;;;5022705;28;20486;-48
2022/11/13 10:55:44;;;;;;;15.80;6.93;;;20.40;42.20;;;;;;5037143;28;20118;-50
2022/11/13 10:58:28;;;;;;;24.77;10.18;;;20.40;43.70;;;;;;5045335;28;20059;-54
2022/11/13 11:01:22;;;;;;;25.45;10.88;;;20.50;45.90;;;;;;5056196;28;20379;-53
2022/11/13 11:04:18;;;;;;;25.63;10.80;;;20.50;48.00;;;;;;5053300;28;20201;-51
2022/11/13 11:07:17;;;;;;;21.10;9.50;;;20.50;49.40;;;;;;5050590;28;20039;-51
2022/11/13 11:10:02;;;;;;;21.70;9.43;;;20.60;49.50;;;;;;5050297;28;20090;-51
2022/11/13 11:12:55;;;;;;;22.60;9.38;;;20.70;50.10;;;;;;5049954;28;20094;-48
2022/11/13 11:15:39;;;;;;;22.92;10.38;;;20.70;50.60;;;;;;5045946;28;20501;-51
2022/11/13 11:18:56;;;;;;;28.17;12.07;;;20.70;51.20;;;;;;5050028;28;20143;-49
2022/11/13 11:21:41;;;;;;;33.42;13.85;;;20.80;52.10;;;;;;5046882;28;20102;-48
2022/11/13 11:24:32;;;;;;;37.05;15.45;;;20.90;53.60;;;;;;5048222;28;20372;-52
2022/11/13 11:27:24;;;;;;;118.63;44.90;;;20.90;55.10;;;;;;5051282;28;20094;-51
2022/11/13 11:30:22;;;;;;;222.13;85.95;;;21.00;55.50;;;;;;5042900;28;20040;-50
2022/11/13 11:33:26;;;;;;;151.43;65.57;;;21.00;55.70;;;;;;5050827;28;20091;-48
2022/11/13 11:36:30;;;;;;;103.30;47.13;;;21.00;54.90;;;;;;5047749;28;20482;-52
2022/11/13 11:39:33;;;;;;;69.28;29.42;;;21.10;55.30;;;;;;5046896;28;20051;-51
2022/11/13 11:42:26;;;;;;;41.25;17.98;;;21.10;54.10;;;;;;5049832;28;20052;-57
2022/11/13 11:45:19;;;;;;;30.95;13.57;;;21.20;52.50;;;;;;5050022;28;21529;-55
2022/11/13 11:48:16;;;;;;;20.98;10.52;;;21.20;51.00;;;;;;5048561;28;20036;-55
2022/11/13 11:51:11;;;;;;;17.67;7.82;;;21.30;49.70;;;;;;5042243;28;20132;-51
2022/11/13 11:53:58;;;;;;;18.98;9.10;;;21.40;48.80;;;;;;5049220;28;20106;-55
2022/11/13 11:56:49;;;;;;;15.27;7.88;;;21.50;48.00;;;;;;5049544;28;20423;-55
2022/11/13 12:00:04;;;;;;;14.65;6.90;;;21.70;47.40;;;;;;5044961;28;20040;-55
2022/11/13 12:03:30;;;;;;;12.38;6.43;;;21.80;46.70;;;;;;5041066;28;20051;-53
2022/11/13 12:06:35;;;;;;;12.85;6.15;;;21.90;46.40;;;;;;5019399;28;20147;-55
2022/11/13 12:09:30;;;;;;;12.18;5.85;;;21.90;46.10;;;;;;5043511;28;20040;-58
2022/11/13 12:12:34;;;;;;;14.43;6.57;;;22.00;45.90;;;;;;5050592;28;20052;-57
2022/11/13 12:15:28;;;;;;;11.95;6.22;;;22.10;45.60;;;;;;5047924;28;20086;-51
2022/11/13 12:18:40;;;;;;;10.43;5.22;;;22.10;45.30;;;;;;5048378;28;20132;-54
2022/11/13 12:21:49;;;;;;;10.77;5.68;;;22.20;45.10;;;;;;5035627;28;20051;-53
2022/11/13 12:25:10;;;;;;;10.60;5.30;;;22.30;44.80;;;;;;5034666;28;20052;-52
2022/11/13 12:28:17;;;;;;;10.20;4.93;;;22.30;44.60;;;;;;5045918;28;20059;-51
2022/11/13 12:31:12;;;;;;;10.98;5.10;;;22.40;44.50;;;;;;5034569;28;20051;-53
2022/11/13 12:34:04;;;;;;;;;;;22.40;43.70;;;;;;5044460;28;20521;-55
2022/11/13 12:36:50;;;;;;;9.75;4.43;;;22.40;44.10;;;;;;5047761;28;19927;-57
2022/11/13 12:39:55;;;;;;;8.43;4.22;;;22.50;44.00;;;;;;5048701;28;20488;-51
2022/11/13 12:42:47;;;;;;;;;;;22.50;43.70;;;;;;5038993;28;20108;-56
2022/11/13 12:45:37;;;;;;;7.88;4.07;;;22.50;43.50;;;;;;5039740;28;19928;-55
2022/11/13 12:48:26;;;;;;;6.82;3.75;;;22.50;43.40;;;;;;5039659;28;20440;-55
2022/11/13 12:51:16;;;;;;;6.15;3.53;;;22.60;43.30;;;;;;5045086;28;20086;-49
2022/11/13 12:54:00;;;;;;;7.85;3.90;;;22.60;43.20;;;;;;5046216;28;20040;-54
2022/11/13 12:56:44;;;;;;;6.55;3.90;;;22.60;43.00;;;;;;5048068;28;20098;-49
2022/11/13 12:59:35;;;;;;;7.80;4.32;;;22.70;42.90;;;;;;5040439;28;20124;-55
2022/11/13 13:02:25;;;;;;;5.07;3.47;;;22.70;42.70;;;;;;5046584;28;20126;-52
2022/11/13 13:05:18;;;;;;;5.53;3.45;;;22.70;42.60;;;;;;5051893;28;20067;-54
2022/11/13 13:08:21;;;;;;;5.85;3.28;;;22.80;42.50;;;;;;5047233;28;20041;-51
2022/11/13 13:11:24;;;;;;;5.53;3.10;;;22.80;42.30;;;;;;5050137;28;20132;-53
2022/11/13 13:14:32;;;;;;;5.55;2.97;;;22.80;42.20;;;;;;5050565;28;20040;-52
2022/11/13 13:17:19;;;;;;;7.05;3.08;;;22.80;42.00;;;;;;5050977;28;20059;-53
2022/11/13 13:20:26;;;;;;;5.88;3.17;;;22.80;41.90;;;;;;5049679;28;20044;-53
2022/11/13 13:23:12;;;;;;;5.50;3.33;;;22.90;41.90;;;;;;5042690;28;20457;-52
2022/11/13 13:26:03;;;;;;;4.38;2.80;;;22.90;41.70;;;;;;5037606;28;20107;-53
2022/11/13 13:28:55;;;;;;;4.38;2.88;;;22.90;41.40;;;;;;5052158;28;20080;-52
2022/11/13 13:32:06;;;;;;;3.50;2.25;;;22.90;41.10;;;;;;5056873;28;20098;-49
2022/11/13 13:34:59;;;;;;;3.10;2.17;;;22.90;40.80;;;;;;5056552;28;20052;-53
2022/11/13 13:38:16;;;;;;;3.85;2.40;;;22.90;40.50;;;;;;5056899;28;20103;-56
2022/11/13 13:41:38;;;;;;;3.45;2.05;;;22.90;40.20;;;;;;5057384;28;20059;-54
2022/11/13 13:44:56;;;;;;;2.80;1.77;;;22.90;39.90;;;;;;5048104;28;20048;-51
2022/11/13 13:47:44;;;;;;;3.97;2.20;;;22.90;39.60;;;;;;5037541;28;20064;-52
2022/11/13 13:50:35;;;;;;;3.55;1.90;;;22.90;39.40;;;;;;5037628;28;20084;-49
2022/11/13 13:53:28;;;;;;;3.97;2.20;;;22.90;39.30;;;;;;5039804;28;20088;-53
2022/11/13 13:56:13;;;;;;;4.07;2.20;;;22.90;39.10;;;;;;5050806;28;20060;-52
2022/11/13 13:58:59;;;;;;;4.53;1.95;;;22.90;38.90;;;;;;5039962;28;20503;-55
2022/11/13 14:01:54;;;;;;;2.97;2.05;;;22.90;38.70;;;;;;5026199;28;20052;-51
2022/11/13 14:04:45;;;;;;;3.22;1.88;;;22.90;38.60;;;;;;5042337;28;20234;-52
2022/11/13 14:07:29;;;;;;;2.65;1.85;;;22.90;38.40;;;;;;5056217;28;20103;-51
2022/11/13 14:10:19;;;;;;;2.25;1.70;;;22.90;38.30;;;;;;5039845;28;20044;-56
2022/11/13 14:13:04;;;;;;;3.33;1.95;;;22.90;38.70;;;;;;5051733;28;20056;-55
2022/11/13 14:15:58;;;;;;;4.25;2.03;;;22.90;39.40;;;;;;5055515;28;20107;-57
2022/11/13 14:18:42;;;;;;;3.33;2.08;;;22.90;39.80;;;;;;5047115;28;20132;-57
2022/11/13 14:21:27;;;;;;;;;;;23.00;40.10;;;;;;5057106;28;20048;-55
2022/11/13 14:24:28;;;;;;;3.30;2.17;;;23.00;40.20;;;;;;5056568;28;20404;-52
2022/11/13 14:27:24;;;;;;;2.95;2.15;;;23.00;40.30;;;;;;5054119;28;20151;-53
2022/11/13 14:30:25;;;;;;;2.78;1.80;;;23.10;40.20;;;;;;5036853;28;20099;-55
2022/11/13 14:33:16;;;;;;;3.55;1.90;;;23.20;40.10;;;;;;5036920;28;20107;-56
2022/11/13 14:36:02;;;;;;;3.90;2.08;;;23.20;40.10;;;;;;5036677;28;20080;-55
2022/11/13 14:38:48;;;;;;;2.50;1.88;;;23.20;40.00;;;;;;5048347;28;20435;-52
2022/11/13 14:41:38;;;;;;;2.97;1.90;;;23.30;39.90;;;;;;5041118;28;20040;-50